SPQU/AQP METAR and TAF weather

Enter ICAO airport designator
Station Type Date Time Source
SPQU METAR 2020/09/22 18:00 UTC NOAA

SPQU 221800Z 26011KT 210V300 CAVOK 22/M05 Q1026 NOSIG RMK PP000


Station Type Date Time Source
SPQU Decoded METAR 2020/09/22 18:00 UTC NOAA

Arequipa, Peru (SPQU) 16-19S 071-33W 2539M
Sep 22, 2020 - 02:00 PM EDT / 2020.09.22 1800 UTC
Wind: from the W (260 degrees) at 13 MPH (11 KT) (direction variable):0
Visibility: greater than 7 mile(s):0
Temperature: 71 F (22 C)
Dew Point: 23 F (-5 C)
Relative Humidity: 15%
Pressure (altimeter): 30.30 in. Hg (1026 hPa)
ob: SPQU 221800Z 26011KT 210V300 CAVOK 22/M05 Q1026 NOSIG RMK PP000
cycle: 18

Station Type Date Time Source
SPQU TAF 2020/09/22 18:37 UTC NOAA

TAF SPQU 221700Z 2218/2318 26010KT CAVOK TX23/2219Z TN09/2310Z
BECMG 2300/2302 03005KT
FM231400 24005KT CAVOK

Example: see airport list